Time;durP1;ratioP1;P1;durP2;ratioP2;P2;SDS_P1;SDS_P2;PMS_P1;PMS_P2;Temp;Humidity;BMP_temperature;BMP_pressure;BME280_temperature;BME280_humidity;BME280_pressure;Samples;Min_cycle;Max_cycle;Signal;HPM_P1;HPM_P2
2022/05/10 00:00:02;;;;;;;10.20;4.97;;;;;;;;;;5091937;28;20506;-77
2022/05/10 00:02:30;;;;;;;11.35;4.97;;;;;;;;;;5102942;28;20105;-77
2022/05/10 00:04:56;;;;;;;8.98;4.75;;;;;;;;;;5096627;28;20043;-77
2022/05/10 00:07:23;;;;;;;11.50;4.60;;;;;;;;;;5094956;28;20097;-77
2022/05/10 00:09:50;;;;;;;11.73;4.97;;;;;;;;;;5103889;28;20043;-78
2022/05/10 00:12:16;;;;;;;10.52;4.80;;;;;;;;;;5092169;28;20482;-77
2022/05/10 00:14:42;;;;;;;9.43;4.15;;;;;;;;;;5099225;28;20040;-77
2022/05/10 00:17:09;;;;;;;9.43;4.88;;;;;;;;;;5083264;28;20042;-77
2022/05/10 00:19:36;;;;;;;9.48;4.72;;;;;;;;;;5091504;28;20098;-77
2022/05/10 00:22:02;;;;;;;9.20;5.40;;;;;;;;;;5103995;28;20044;-77
2022/05/10 00:24:28;;;;;;;10.32;5.00;;;;;;;;;;5078635;28;20180;-77
2022/05/10 00:26:55;;;;;;;8.48;4.80;;;;;;;;;;5078628;28;20039;-77
2022/05/10 00:29:21;;;;;;;10.60;5.30;;;;;;;;;;5103237;28;20051;-77
2022/05/10 00:31:47;;;;;;;11.65;4.82;;;;;;;;;;5091067;28;20407;-78
2022/05/10 00:34:16;;;;;;;9.30;4.80;;;;;;;;;;5107439;28;20036;-77
2022/05/10 00:36:42;;;;;;;10.00;5.00;;;;;;;;;;5095751;28;20036;-78
2022/05/10 00:39:08;;;;;;;10.82;5.18;;;;;;;;;;5102714;28;20058;-78
2022/05/10 00:41:51;;;;;;;10.50;4.95;;;;;;;;;;5090816;28;20039;-77
2022/05/10 00:44:17;;;;;;;10.43;5.07;;;;;;;;;;5107671;28;20040;-78
2022/05/10 00:46:52;;;;;;;10.20;5.00;;;;;;;;;;5107311;28;20036;-77
2022/05/10 00:49:21;;;;;;;9.88;5.10;;;;;;;;;;5090925;28;20166;-77
2022/05/10 00:52:07;;;;;;;11.55;5.53;;;;;;;;;;5100966;28;20036;-79
2022/05/10 00:54:43;;;;;;;12.40;5.25;;;;;;;;;;5101331;28;20046;-77
2022/05/10 00:57:21;;;;;;;11.27;5.40;;;;;;;;;;5090829;28;20032;-78
2022/05/10 01:00:09;;;;;;;11.35;5.22;;;;;;;;;;5099929;28;20147;-78
2022/05/10 01:02:38;;;;;;;11.02;5.30;;;;;;;;;;5101396;28;20040;-77
2022/05/10 01:05:31;;;;;;;11.43;5.07;;;;;;;;;;5076053;28;20098;-77
2022/05/10 01:07:58;;;;;;;12.05;4.68;;;;;;;;;;5073484;28;20489;-78
2022/05/10 01:10:36;;;;;;;11.70;5.07;;;;;;;;;;5093289;28;20040;-77
2022/05/10 01:13:09;;;;;;;11.88;5.38;;;;;;;;;;5103357;28;20503;-77
2022/05/10 01:15:35;;;;;;;9.73;5.40;;;;;;;;;;5080326;28;20039;-77
2022/05/10 01:18:01;;;;;;;12.80;5.75;;;;;;;;;;5099570;28;20060;-77
2022/05/10 01:20:38;;;;;;;11.43;5.03;;;;;;;;;;5106232;28;20118;-77
2022/05/10 01:23:19;;;;;;;10.98;5.05;;;;;;;;;;5058460;28;20067;-77
2022/05/10 01:25:59;;;;;;;10.05;5.28;;;;;;;;;;5084488;28;20054;-77
2022/05/10 01:28:34;;;;;;;7.60;4.85;;;;;;;;;;5094358;28;20048;-78
2022/05/10 01:31:05;;;;;;;11.75;5.13;;;;;;;;;;5063971;28;20046;-78
2022/05/10 01:33:35;;;;;;;9.20;4.40;;;;;;;;;;5101008;28;20040;-77
2022/05/10 01:36:04;;;;;;;9.20;5.00;;;;;;;;;;5104463;28;20052;-78
2022/05/10 01:38:43;;;;;;;10.57;5.35;;;;;;;;;;5091915;28;20047;-78
2022/05/10 01:41:18;;;;;;;13.02;6.20;;;;;;;;;;5090381;28;20051;-78
2022/05/10 01:44:03;;;;;;;11.02;5.20;;;;;;;;;;5103399;28;20149;-78
2022/05/10 01:46:30;;;;;;;11.18;5.60;;;;;;;;;;5077028;28;20044;-78
2022/05/10 01:49:16;;;;;;;12.52;6.10;;;;;;;;;;5103220;28;20083;-78
2022/05/10 01:51:46;;;;;;;12.00;5.32;;;;;;;;;;5103968;28;20126;-78
2022/05/10 01:54:27;;;;;;;10.40;5.15;;;;;;;;;;5075422;28;20036;-78
2022/05/10 01:56:53;;;;;;;11.65;5.35;;;;;;;;;;5097794;28;20061;-78
2022/05/10 01:59:19;;;;;;;8.98;5.20;;;;;;;;;;5081906;28;20487;-78
2022/05/10 02:01:45;;;;;;;13.93;6.00;;;;;;;;;;5105841;28;20055;-78
2022/05/10 02:04:21;;;;;;;15.65;5.80;;;;;;;;;;5093745;28;20394;-78
2022/05/10 02:06:47;;;;;;;11.65;5.72;;;;;;;;;;5101799;28;20040;-78
2022/05/10 02:09:22;;;;;;;11.98;5.68;;;;;;;;;;5102217;28;20071;-78
2022/05/10 02:11:59;;;;;;;11.73;5.93;;;;;;;;;;5093607;28;20487;-78
2022/05/10 02:14:27;;;;;;;15.18;6.78;;;;;;;;;;5103796;28;20043;-78
2022/05/10 02:17:00;;;;;;;14.63;6.40;;;;;;;;;;5100261;28;20122;-78
2022/05/10 02:19:29;;;;;;;10.98;6.28;;;;;;;;;;5068244;28;20373;-78
2022/05/10 02:21:58;;;;;;;10.52;6.13;;;;;;;;;;5092700;28;20501;-78
2022/05/10 02:24:30;;;;;;;12.43;6.38;;;;;;;;;;5102105;28;20089;-78
2022/05/10 02:27:00;;;;;;;13.45;6.28;;;;;;;;;;5101812;28;20070;-77
2022/05/10 02:29:26;;;;;;;11.68;5.97;;;;;;;;;;5093380;28;20431;-78
2022/05/10 02:34:42;;;;;;;11.25;6.00;;;;;;;;;;5100273;28;20129;-78
2022/05/10 02:37:08;;;;;;;9.82;6.30;;;;;;;;;;5077234;28;20454;-78
2022/05/10 02:39:35;;;;;;;12.80;6.45;;;;;;;;;;5105703;28;20071;-78
2022/05/10 02:42:01;;;;;;;12.50;5.97;;;;;;;;;;5096008;28;20043;-78
2022/05/10 02:44:28;;;;;;;10.48;6.60;;;;;;;;;;5098790;28;20426;-77
2022/05/10 02:46:55;;;;;;;13.18;7.32;;;;;;;;;;5086995;28;20253;-78
2022/05/10 02:49:22;;;;;;;12.85;6.60;;;;;;;;;;5092766;28;20062;-78
2022/05/10 02:51:48;;;;;;;12.60;6.68;;;;;;;;;;5103067;28;20298;-77
2022/05/10 02:54:14;;;;;;;13.52;6.10;;;;;;;;;;5099488;28;20031;-77
2022/05/10 02:56:41;;;;;;;10.98;6.45;;;;;;;;;;5077878;28;20089;-77
2022/05/10 02:59:12;;;;;;;11.52;6.13;;;;;;;;;;5105677;28;20100;-78
2022/05/10 03:01:38;;;;;;;12.63;7.10;;;;;;;;;;5095336;28;20438;-77
2022/05/10 03:04:07;;;;;;;10.43;6.60;;;;;;;;;;5098737;28;20032;-77
2022/05/10 03:06:33;;;;;;;11.15;6.20;;;;;;;;;;5103574;28;20514;-77
2022/05/10 03:09:03;;;;;;;11.80;6.65;;;;;;;;;;5092331;28;20066;-78
2022/05/10 03:11:29;;;;;;;12.30;7.07;;;;;;;;;;5102196;28;20066;-77
2022/05/10 03:13:55;;;;;;;13.80;6.72;;;;;;;;;;5099187;28;20043;-78
2022/05/10 03:16:25;;;;;;;9.48;6.35;;;;;;;;;;5094341;28;20047;-77
2022/05/10 03:18:52;;;;;;;11.05;6.70;;;;;;;;;;5107629;28;20088;-78
2022/05/10 03:21:18;;;;;;;10.82;5.90;;;;;;;;;;5102040;28;20044;-77
2022/05/10 03:23:45;;;;;;;11.52;6.93;;;;;;;;;;5098937;28;20047;-77
2022/05/10 03:26:12;;;;;;;13.60;7.45;;;;;;;;;;5094238;28;20387;-77
2022/05/10 03:28:38;;;;;;;12.80;7.53;;;;;;;;;;5104634;28;20086;-77
2022/05/10 03:31:05;;;;;;;12.90;7.22;;;;;;;;;;5088972;28;20376;-77
2022/05/10 03:33:31;;;;;;;13.70;7.45;;;;;;;;;;5098385;28;20039;-77
2022/05/10 03:35:57;;;;;;;15.82;8.30;;;;;;;;;;5094205;28;20048;-77
2022/05/10 03:38:23;;;;;;;14.00;8.93;;;;;;;;;;5087241;28;20093;-77
2022/05/10 03:40:49;;;;;;;14.35;7.72;;;;;;;;;;5076916;28;20032;-77
2022/05/10 03:43:15;;;;;;;11.60;7.55;;;;;;;;;;5098986;28;20105;-78
2022/05/10 03:45:41;;;;;;;13.75;8.40;;;;;;;;;;5084671;28;20395;-78
2022/05/10 03:48:08;;;;;;;11.32;7.68;;;;;;;;;;5091800;28;20220;-77
2022/05/10 03:50:34;;;;;;;14.02;9.05;;;;;;;;;;5086470;28;20040;-77
2022/05/10 03:53:00;;;;;;;11.30;7.95;;;;;;;;;;5096692;28;20043;-78
2022/05/10 03:55:28;;;;;;;10.73;7.45;;;;;;;;;;5096115;28;20044;-77
2022/05/10 03:57:55;;;;;;;16.55;9.02;;;;;;;;;;5104483;28;20043;-77
2022/05/10 04:00:23;;;;;;;14.20;9.07;;;;;;;;;;5092109;28;20110;-77
2022/05/10 04:02:50;;;;;;;11.93;8.18;;;;;;;;;;5099676;28;20534;-76
2022/05/10 04:05:17;;;;;;;14.77;9.55;;;;;;;;;;5086516;28;21213;-77
2022/05/10 04:07:43;;;;;;;13.20;8.77;;;;;;;;;;5102376;28;20039;-77
2022/05/10 04:10:11;;;;;;;14.15;9.77;;;;;;;;;;5075706;28;20031;-77
2022/05/10 04:12:38;;;;;;;14.27;9.30;;;;;;;;;;5099913;28;20047;-77
2022/05/10 04:15:06;;;;;;;12.35;7.78;;;;;;;;;;5099811;28;20046;-77
2022/05/10 04:17:32;;;;;;;14.93;9.10;;;;;;;;;;5074519;28;20047;-77
2022/05/10 04:20:08;;;;;;;16.58;10.05;;;;;;;;;;5074784;28;20037;-77
2022/05/10 04:22:34;;;;;;;14.40;9.18;;;;;;;;;;5098524;28;20051;-77
2022/05/10 04:25:01;;;;;;;14.73;10.63;;;;;;;;;;5100931;28;20047;-77
2022/05/10 04:27:28;;;;;;;15.85;10.27;;;;;;;;;;5091275;28;20478;-77
2022/05/10 04:29:54;;;;;;;14.35;10.18;;;;;;;;;;5103404;28;20044;-77
2022/05/10 04:32:20;;;;;;;14.70;10.23;;;;;;;;;;5096102;28;20040;-77
2022/05/10 04:34:46;;;;;;;17.80;9.95;;;;;;;;;;5107755;28;20563;-77
2022/05/10 04:37:13;;;;;;;16.20;11.02;;;;;;;;;;5091056;28;20070;-77
2022/05/10 04:42:23;;;;;;;14.93;9.98;;;;;;;;;;5087960;28;20082;-77
2022/05/10 04:44:50;;;;;;;15.68;11.35;;;;;;;;;;5079023;28;20109;-78
2022/05/10 04:47:16;;;;;;;17.95;9.98;;;;;;;;;;5101864;28;20039;-78
2022/05/10 04:49:42;;;;;;;19.63;10.95;;;;;;;;;;5083736;28;20039;-78
2022/05/10 04:52:10;;;;;;;15.93;10.77;;;;;;;;;;5100971;28;20043;-77
2022/05/10 04:54:36;;;;;;;13.52;10.00;;;;;;;;;;5097831;28;20051;-77
2022/05/10 04:57:03;;;;;;;15.73;10.25;;;;;;;;;;5086515;28;20420;-77
2022/05/10 04:59:30;;;;;;;15.27;10.57;;;;;;;;;;5106388;28;20069;-76
2022/05/10 05:01:56;;;;;;;16.85;10.32;;;;;;;;;;5094137;28;20031;-77
2022/05/10 05:04:22;;;;;;;17.05;10.43;;;;;;;;;;5085407;28;20154;-77
2022/05/10 05:06:50;;;;;;;19.27;10.95;;;;;;;;;;5107754;28;20363;-77
2022/05/10 05:09:16;;;;;;;15.73;10.63;;;;;;;;;;5113478;28;20101;-77
2022/05/10 05:11:43;;;;;;;18.95;11.25;;;;;;;;;;5113664;28;20130;-76
2022/05/10 05:14:10;;;;;;;15.98;10.75;;;;;;;;;;5100692;28;20032;-77
2022/05/10 05:16:36;;;;;;;18.05;11.23;;;;;;;;;;5093504;28;20232;-76
2022/05/10 05:19:03;;;;;;;17.52;11.20;;;;;;;;;;5114085;28;20387;-77
2022/05/10 05:21:29;;;;;;;17.42;11.68;;;;;;;;;;5113127;28;20094;-77
2022/05/10 05:23:55;;;;;;;18.20;11.63;;;;;;;;;;5106411;28;20396;-77
2022/05/10 05:26:22;;;;;;;15.48;10.75;;;;;;;;;;5092348;28;20105;-77
2022/05/10 05:28:48;;;;;;;15.15;11.00;;;;;;;;;;5088454;28;20089;-77
2022/05/10 05:31:15;;;;;;;14.52;11.23;;;;;;;;;;5071123;28;20074;-76
2022/05/10 05:33:41;;;;;;;17.05;10.90;;;;;;;;;;5086388;28;20039;-76
2022/05/10 05:36:08;;;;;;;16.08;11.07;;;;;;;;;;5092201;28;20055;-77
2022/05/10 05:38:34;;;;;;;14.98;10.75;;;;;;;;;;5091017;28;20040;-77
2022/05/10 05:41:01;;;;;;;19.05;11.10;;;;;;;;;;5089831;28;20032;-77
2022/05/10 05:43:28;;;;;;;18.73;11.23;;;;;;;;;;5071847;28;20036;-77
2022/05/10 05:45:54;;;;;;;17.48;11.50;;;;;;;;;;5092104;28;20052;-78
2022/05/10 05:48:21;;;;;;;15.93;11.43;;;;;;;;;;5088287;28;20732;-77
2022/05/10 05:50:48;;;;;;;18.48;12.10;;;;;;;;;;5090922;28;20055;-77
2022/05/10 05:53:14;;;;;;;18.48;12.02;;;;;;;;;;5095839;28;20071;-77
2022/05/10 05:55:41;;;;;;;17.88;12.00;;;;;;;;;;5091973;28;20105;-78
2022/05/10 05:58:08;;;;;;;18.70;12.48;;;;;;;;;;5106492;28;20049;-76
2022/05/10 06:00:35;;;;;;;17.45;11.88;;;;;;;;;;5095864;28;20039;-78
2022/05/10 06:03:01;;;;;;;16.30;12.70;;;;;;;;;;5100106;28;20514;-77
2022/05/10 06:05:27;;;;;;;18.23;12.35;;;;;;;;;;5079292;28;20075;-78
2022/05/10 06:07:54;;;;;;;15.43;12.23;;;;;;;;;;5066240;28;20043;-78
2022/05/10 06:10:20;;;;;;;18.02;13.02;;;;;;;;;;5078337;28;20046;-78
2022/05/10 06:12:46;;;;;;;20.77;11.77;;;;;;;;;;5093453;28;20206;-78
2022/05/10 06:15:14;;;;;;;18.85;12.48;;;;;;;;;;5096121;28;20503;-79
2022/05/10 06:17:42;;;;;;;16.98;12.18;;;;;;;;;;5088395;28;20122;-78
2022/05/10 06:20:09;;;;;;;15.10;11.52;;;;;;;;;;5104527;28;20036;-78
2022/05/10 06:22:35;;;;;;;18.58;12.43;;;;;;;;;;5082373;28;20514;-79
2022/05/10 06:25:01;;;;;;;17.73;12.20;;;;;;;;;;5096389;28;20061;-78
2022/05/10 06:27:27;;;;;;;15.60;11.90;;;;;;;;;;5089392;28;20040;-77
2022/05/10 06:29:53;;;;;;;16.35;10.80;;;;;;;;;;5094047;28;20043;-78
2022/05/10 06:32:21;;;;;;;18.70;11.98;;;;;;;;;;5100855;28;20047;-77
2022/05/10 06:34:49;;;;;;;18.92;12.18;;;;;;;;;;5102178;28;20569;-78
2022/05/10 06:40:00;;;;;;;;;;;;;;;;;;5103035;28;20294;-77
2022/05/10 06:42:26;;;;;;;14.18;10.40;;;;;;;;;;5088712;28;19931;-78
2022/05/10 06:44:52;;;;;;;16.15;10.43;;;;;;;;;;5088914;28;20071;-77
2022/05/10 06:47:18;;;;;;;17.02;10.85;;;;;;;;;;5105956;28;20040;-77
2022/05/10 06:49:45;;;;;;;16.75;10.20;;;;;;;;;;5085892;28;20043;-78
2022/05/10 06:52:11;;;;;;;15.13;9.63;;;;;;;;;;5099285;28;20043;-77
2022/05/10 06:54:37;;;;;;;17.08;9.75;;;;;;;;;;5091968;28;20044;-77
2022/05/10 06:57:03;;;;;;;14.63;9.35;;;;;;;;;;5091796;28;20393;-78
2022/05/10 06:59:33;;;;;;;13.20;8.50;;;;;;;;;;5103147;28;20043;-77
2022/05/10 07:01:59;;;;;;;14.32;9.07;;;;;;;;;;5081794;28;20050;-78
2022/05/10 07:04:25;;;;;;;14.18;8.82;;;;;;;;;;5073021;28;20150;-78
2022/05/10 07:06:51;;;;;;;13.45;8.65;;;;;;;;;;5087952;28;20526;-78
2022/05/10 07:09:18;;;;;;;11.90;8.10;;;;;;;;;;5103836;28;20294;-79
2022/05/10 07:11:46;;;;;;;12.45;8.20;;;;;;;;;;5067158;28;20036;-79
2022/05/10 07:14:12;;;;;;;13.43;8.07;;;;;;;;;;5068128;28;20049;-78
2022/05/10 07:16:39;;;;;;;12.60;7.85;;;;;;;;;;5070690;28;20079;-77
2022/05/10 07:19:05;;;;;;;10.18;7.50;;;;;;;;;;5105964;28;20046;-78
2022/05/10 07:21:31;;;;;;;12.25;7.35;;;;;;;;;;5100088;28;20044;-78
2022/05/10 07:23:57;;;;;;;14.15;7.25;;;;;;;;;;5096613;28;20514;-77
2022/05/10 07:26:24;;;;;;;15.50;7.40;;;;;;;;;;5071551;28;20035;-79
2022/05/10 07:28:50;;;;;;;12.48;7.18;;;;;;;;;;5104605;28;20127;-79
2022/05/10 07:31:16;;;;;;;11.77;6.70;;;;;;;;;;5096281;28;20123;-79
2022/05/10 07:33:42;;;;;;;12.10;5.82;;;;;;;;;;5096255;28;20040;-78
2022/05/10 07:36:23;;;;;;;11.73;6.15;;;;;;;;;;5104060;28;20123;-79
2022/05/10 07:38:50;;;;;;;11.20;5.70;;;;;;;;;;5079276;28;20047;-78
2022/05/10 07:41:21;;;;;;;11.48;6.18;;;;;;;;;;5099036;28;20032;-76
2022/05/10 07:43:47;;;;;;;11.63;5.97;;;;;;;;;;5102137;28;20047;-78
2022/05/10 07:46:14;;;;;;;15.90;5.85;;;;;;;;;;5075136;28;20380;-77
2022/05/10 07:48:40;;;;;;;11.45;5.43;;;;;;;;;;5102964;28;20360;-79
2022/05/10 07:51:07;;;;;;;13.57;5.22;;;;;;;;;;5097673;28;20066;-77
2022/05/10 07:53:35;;;;;;;12.55;5.68;;;;;;;;;;5094237;28;20569;-79
2022/05/10 07:56:02;;;;;;;12.57;5.80;;;;;;;;;;5087319;28;20040;-81
2022/05/10 07:58:29;;;;;;;10.25;4.70;;;;;;;;;;5088276;28;20123;-79
2022/05/10 08:00:55;;;;;;;10.77;5.03;;;;;;;;;;5097449;28;20036;-80
2022/05/10 08:03:23;;;;;;;10.07;5.00;;;;;;;;;;5094698;28;20093;-80
2022/05/10 08:05:50;;;;;;;10.80;5.78;;;;;;;;;;5089713;28;20066;-77
2022/05/10 08:08:19;;;;;;;11.50;5.72;;;;;;;;;;5103810;28;20036;-80
2022/05/10 08:10:46;;;;;;;10.05;4.53;;;;;;;;;;5097098;28;20100;-78
2022/05/10 08:13:20;;;;;;;7.88;5.03;;;;;;;;;;5094160;28;20044;-79
2022/05/10 08:15:47;;;;;;;9.50;4.97;;;;;;;;;;5087466;28;20043;-79
2022/05/10 08:18:13;;;;;;;8.50;4.97;;;;;;;;;;5087705;28;20048;-77
2022/05/10 08:20:41;;;;;;;10.52;5.22;;;;;;;;;;5098101;28;20511;-81
2022/05/10 08:23:08;;;;;;;10.77;4.97;;;;;;;;;;5107808;28;20047;-79
2022/05/10 08:25:34;;;;;;;10.50;4.80;;;;;;;;;;5091488;28;20513;-80
2022/05/10 08:28:01;;;;;;;14.15;5.85;;;;;;;;;;5102262;28;20036;-80
2022/05/10 08:30:27;;;;;;;10.40;5.28;;;;;;;;;;5097629;28;20395;-81
2022/05/10 08:32:54;;;;;;;8.57;5.30;;;;;;;;;;5077183;28;20419;-80
2022/05/10 08:35:22;;;;;;;12.35;5.85;;;;;;;;;;5087741;28;20519;-79
2022/05/10 08:37:48;;;;;;;10.50;5.50;;;;;;;;;;5102238;28;20062;-79
2022/05/10 08:40:23;;;;;;;10.50;4.72;;;;;;;;;;5096666;28;20376;-79
2022/05/10 08:42:52;;;;;;;9.85;5.60;;;;;;;;;;5093298;28;20127;-78
2022/05/10 08:45:19;;;;;;;9.95;5.88;;;;;;;;;;5074624;28;20040;-80
2022/05/10 08:47:46;;;;;;;11.55;5.20;;;;;;;;;;5058911;28;20072;-80
2022/05/10 08:50:13;;;;;;;12.10;6.05;;;;;;;;;;5072159;28;20420;-81
2022/05/10 08:52:41;;;;;;;7.57;4.60;;;;;;;;;;5082155;28;20040;-81
2022/05/10 08:55:08;;;;;;;10.43;4.88;;;;;;;;;;5080173;28;20036;-79
2022/05/10 08:57:47;;;;;;;12.25;5.43;;;;;;;;;;5073420;28;20130;-81
2022/05/10 09:00:33;;;;;;;9.85;4.78;;;;;;;;;;5095103;28;20042;-80
2022/05/10 09:03:00;;;;;;;10.00;5.07;;;;;;;;;;5103813;28;20040;-80
2022/05/10 09:05:41;;;;;;;8.63;4.95;;;;;;;;;;5093617;28;20043;-79
2022/05/10 09:08:12;;;;;;;9.85;5.25;;;;;;;;;;5088404;28;20056;-80
2022/05/10 09:10:38;;;;;;;9.38;4.90;;;;;;;;;;5089595;28;20044;-79
2022/05/10 09:13:08;;;;;;;9.60;4.95;;;;;;;;;;5088973;28;20040;-79
2022/05/10 09:15:36;;;;;;;10.85;4.93;;;;;;;;;;5089656;28;20075;-78
2022/05/10 09:18:13;;;;;;;13.00;5.63;;;;;;;;;;5072689;28;20043;-78
2022/05/10 09:20:42;;;;;;;11.05;5.47;;;;;;;;;;5107841;28;20085;-76
2022/05/10 09:23:27;;;;;;;8.63;4.78;;;;;;;;;;5101560;28;20104;-80
2022/05/10 09:25:56;;;;;;;9.93;5.28;;;;;;;;;;5082070;28;20098;-81
2022/05/10 09:28:44;;;;;;;11.68;5.10;;;;;;;;;;5066513;28;20047;-80
2022/05/10 09:37:16;;;;;;;10.68;5.93;;;;;;;;;;5089401;28;20047;-80
2022/05/10 09:39:46;;;;;;;9.93;5.88;;;;;;;;;;5090441;28;20028;-80
2022/05/10 09:42:24;;;;;;;9.65;5.88;;;;;;;;;;5088574;28;20048;-72
2022/05/10 09:44:57;;;;;;;12.00;6.75;;;;;;;;;;5070001;28;20032;-80
2022/05/10 09:47:23;;;;;;;12.70;6.25;;;;;;;;;;5093041;28;20040;-80
2022/05/10 09:49:49;;;;;;;11.32;6.63;;;;;;;;;;5094192;28;20678;-81
2022/05/10 09:52:20;;;;;;;11.32;6.43;;;;;;;;;;5075852;28;20040;-79
2022/05/10 09:54:47;;;;;;;9.82;6.15;;;;;;;;;;5076236;28;20071;-81
2022/05/10 09:57:48;;;;;;;10.55;6.53;;;;;;;;;;5093182;28;20577;-81
2022/05/10 10:00:15;;;;;;;10.68;6.32;;;;;;;;;;5054075;28;20064;-79
2022/05/10 10:02:43;;;;;;;11.45;7.07;;;;;;;;;;5100725;28;20035;-79
2022/05/10 10:05:18;;;;;;;10.82;6.93;;;;;;;;;;5096243;28;20047;-81
2022/05/10 10:07:49;;;;;;;9.13;6.85;;;;;;;;;;5094868;28;20392;-81
2022/05/10 10:10:16;;;;;;;13.35;7.25;;;;;;;;;;5072546;28;20043;-80
2022/05/10 10:12:44;;;;;;;14.60;7.78;;;;;;;;;;5082081;28;20434;-81
2022/05/10 10:15:16;;;;;;;11.38;6.82;;;;;;;;;;5106493;28;20379;-81
2022/05/10 10:17:49;;;;;;;13.02;7.10;;;;;;;;;;5113271;28;20384;-80
2022/05/10 10:20:19;;;;;;;10.10;6.90;;;;;;;;;;5088757;28;20488;-79
2022/05/10 10:22:48;;;;;;;12.05;6.38;;;;;;;;;;5092436;28;20047;-78
2022/05/10 10:25:17;;;;;;;9.27;6.78;;;;;;;;;;5075558;28;20568;-79
2022/05/10 10:27:43;;;;;;;12.35;6.32;;;;;;;;;;5092471;28;20445;-79
2022/05/10 10:30:09;;;;;;;9.00;6.10;;;;;;;;;;5092116;28;20047;-81
2022/05/10 10:32:39;;;;;;;10.77;5.70;;;;;;;;;;5075328;28;20036;-80
2022/05/10 10:35:23;;;;;;;11.32;5.97;;;;;;;;;;5075049;28;20092;-79
2022/05/10 10:37:58;;;;;;;9.43;6.13;;;;;;;;;;5075680;28;20095;-80
2022/05/10 10:40:25;;;;;;;9.07;6.68;;;;;;;;;;5075289;28;20040;-81
2022/05/10 10:43:10;;;;;;;8.95;5.93;;;;;;;;;;5075007;28;20040;-80
2022/05/10 10:45:44;;;;;;;11.20;6.13;;;;;;;;;;5091593;28;20060;-79
2022/05/10 10:48:25;;;;;;;11.57;6.22;;;;;;;;;;5066380;28;20048;-81
2022/05/10 10:50:52;;;;;;;8.45;6.30;;;;;;;;;;5088467;28;20043;-79
2022/05/10 10:53:21;;;;;;;9.35;6.35;;;;;;;;;;5088598;28;20040;-78
2022/05/10 10:55:51;;;;;;;10.70;6.18;;;;;;;;;;5091222;28;20082;-71
2022/05/10 10:58:26;;;;;;;9.27;5.35;;;;;;;;;;5102845;28;20118;-71
2022/05/10 11:01:02;;;;;;;11.43;6.00;;;;;;;;;;5094342;28;20556;-72
2022/05/10 11:03:28;;;;;;;8.98;6.60;;;;;;;;;;5100869;28;20400;-72
2022/05/10 11:06:13;;;;;;;10.70;6.60;;;;;;;;;;5080345;28;20071;-72
2022/05/10 11:08:42;;;;;;;11.88;7.75;;;;;;;;;;5090264;28;20043;-71
2022/05/10 11:11:12;;;;;;;14.70;7.75;;;;;;;;;;5099723;28;20040;-72
2022/05/10 11:13:38;;;;;;;12.95;8.13;;;;;;;;;;5100998;28;20119;-72
2022/05/10 11:16:23;;;;;;;12.18;7.05;;;;;;;;;;5086385;28;20460;-72
2022/05/10 11:18:49;;;;;;;;;;;;;;;;;;5092232;28;20036;-80
2022/05/10 11:21:36;;;;;;;12.27;7.00;;;;;;;;;;5091698;28;19962;-79
2022/05/10 11:24:15;;;;;;;12.15;7.15;;;;;;;;;;5074546;28;20078;-81
2022/05/10 11:26:53;;;;;;;13.27;7.65;;;;;;;;;;5091137;28;20076;-83
2022/05/10 11:29:31;;;;;;;15.80;7.15;;;;;;;;;;5090997;28;20071;-81
2022/05/10 11:31:57;;;;;;;11.50;7.43;;;;;;;;;;5091001;28;20051;-82
2022/05/10 11:34:56;;;;;;;12.82;7.40;;;;;;;;;;5091121;28;20044;-81
2022/05/10 11:37:26;;;;;;;9.98;7.10;;;;;;;;;;5057986;28;20048;-79
2022/05/10 11:40:19;;;;;;;9.98;6.75;;;;;;;;;;5090653;28;20050;-83
2022/05/10 11:42:45;;;;;;;11.52;6.60;;;;;;;;;;5073041;28;20046;-82
2022/05/10 11:45:12;;;;;;;9.95;6.50;;;;;;;;;;5091107;28;20040;-82
2022/05/10 11:47:57;;;;;;;11.75;7.00;;;;;;;;;;5069569;28;20039;-84
2022/05/10 11:51:38;;;;;;;10.48;6.97;;;;;;;;;;5071271;28;20036;-81
2022/05/10 11:53:36;;;;;;;12.07;6.82;;;;;;;;;;5082319;28;20040;-82
2022/05/10 11:56:02;;;;;;;11.30;7.82;;;;;;;;;;5070982;28;20028;-83
2022/05/10 11:58:29;;;;;;;9.65;6.60;;;;;;;;;;5087046;28;20041;-81
2022/05/10 12:01:03;;;;;;;10.52;7.03;;;;;;;;;;5088022;28;20040;-82
2022/05/10 12:03:45;;;;;;;10.40;6.93;;;;;;;;;;5086711;28;20122;-82
2022/05/10 12:06:23;;;;;;;11.30;6.57;;;;;;;;;;5095083;28;20278;-83
2022/05/10 12:09:00;;;;;;;9.18;6.03;;;;;;;;;;5099118;28;20080;-83
2022/05/10 12:11:32;;;;;;;10.23;5.97;;;;;;;;;;5083508;28;20079;-82
2022/05/10 12:22:56;;;;;;;12.68;5.90;;;;;;;;;;5056236;28;20043;-80
2022/05/10 12:25:41;;;;;;;9.95;5.55;;;;;;;;;;5091197;28;20047;-82
2022/05/10 12:28:07;;;;;;;;;;;;;;;;;;5083859;28;20101;-82
2022/05/10 12:30:34;;;;;;;15.18;5.75;;;;;;;;;;5064102;28;20383;-84
2022/05/10 12:33:20;;;;;;;11.23;5.40;;;;;;;;;;5081437;28;20046;-81
2022/05/10 12:35:50;;;;;;;10.63;5.45;;;;;;;;;;5067380;28;20064;-82
2022/05/10 12:38:52;;;;;;;11.20;5.32;;;;;;;;;;5067903;28;20333;-82
2022/05/10 12:41:36;;;;;;;9.73;5.03;;;;;;;;;;5045651;28;20511;-81
2022/05/10 12:44:21;;;;;;;12.10;6.38;;;;;;;;;;5096854;28;20578;-81
2022/05/10 12:47:08;;;;;;;11.82;5.93;;;;;;;;;;5086223;28;20046;-85
2022/05/10 12:49:34;;;;;;;12.20;5.60;;;;;;;;;;5052730;28;20055;-81
2022/05/10 12:52:19;;;;;;;10.00;6.13;;;;;;;;;;5095948;28;20050;-81
2022/05/10 12:54:46;;;;;;;12.90;6.75;;;;;;;;;;5107689;28;20043;-82
2022/05/10 12:57:17;;;;;;;10.18;5.90;;;;;;;;;;5086592;28;20040;-80
2022/05/10 12:59:55;;;;;;;10.15;5.90;;;;;;;;;;5072794;28;20027;-81
2022/05/10 13:02:22;;;;;;;11.07;6.13;;;;;;;;;;5086202;28;20044;-81
2022/05/10 13:04:55;;;;;;;9.20;5.32;;;;;;;;;;5105138;28;20047;-83
2022/05/10 13:07:24;;;;;;;11.18;6.05;;;;;;;;;;5107689;28;20066;-81
2022/05/10 13:09:59;;;;;;;12.43;6.85;;;;;;;;;;5096361;28;20043;-82
2022/05/10 13:12:34;;;;;;;9.23;5.28;;;;;;;;;;5095733;28;20495;-81
2022/05/10 13:15:02;;;;;;;11.15;5.22;;;;;;;;;;5077462;28;20032;-83
2022/05/10 13:17:32;;;;;;;10.85;5.60;;;;;;;;;;5094129;28;20506;-84
2022/05/10 13:19:59;;;;;;;11.70;4.70;;;;;;;;;;5076851;28;20036;-83
2022/05/10 13:22:27;;;;;;;9.27;4.93;;;;;;;;;;5077306;28;20105;-82
2022/05/10 13:25:00;;;;;;;11.98;5.10;;;;;;;;;;5094138;28;20071;-82
2022/05/10 13:27:30;;;;;;;9.93;5.05;;;;;;;;;;5067251;28;20036;-83
2022/05/10 13:29:58;;;;;;;10.93;4.90;;;;;;;;;;5094378;28;20569;-82
2022/05/10 13:32:33;;;;;;;10.98;4.78;;;;;;;;;;5094867;28;20380;-84
2022/05/10 13:35:07;;;;;;;13.52;5.15;;;;;;;;;;5093314;28;20044;-81
2022/05/10 13:37:35;;;;;;;10.90;3.97;;;;;;;;;;5093747;28;20047;-84
2022/05/10 13:40:08;;;;;;;10.27;4.68;;;;;;;;;;5092602;28;20095;-84
2022/05/10 13:42:39;;;;;;;7.60;4.38;;;;;;;;;;5092513;28;20044;-83
2022/05/10 13:45:06;;;;;;;10.38;4.10;;;;;;;;;;5092503;28;20105;-84
2022/05/10 13:47:32;;;;;;;9.43;3.70;;;;;;;;;;5076114;28;20040;-83
2022/05/10 13:50:00;;;;;;;10.15;4.00;;;;;;;;;;5082085;28;20526;-84
2022/05/10 13:52:29;;;;;;;10.32;4.05;;;;;;;;;;5075076;28;20093;-84
2022/05/10 13:54:57;;;;;;;8.90;3.50;;;;;;;;;;5090661;28;20455;-84
2022/05/10 13:57:25;;;;;;;9.77;4.00;;;;;;;;;;5090069;28;20040;-84
2022/05/10 13:59:55;;;;;;;9.90;3.80;;;;;;;;;;5089560;28;20071;-84
2022/05/10 14:02:22;;;;;;;14.38;4.03;;;;;;;;;;5099858;28;20040;-82
2022/05/10 14:04:50;;;;;;;8.32;3.67;;;;;;;;;;5094432;28;20050;-83
2022/05/10 14:07:17;;;;;;;9.50;3.20;;;;;;;;;;5088333;28;20070;-84
2022/05/10 14:09:45;;;;;;;8.45;3.78;;;;;;;;;;5090362;28;20028;-82
2022/05/10 14:12:19;;;;;;;9.57;3.47;;;;;;;;;;5091005;28;20088;-83
2022/05/10 14:14:46;;;;;;;10.18;3.40;;;;;;;;;;5092089;28;20116;-82
2022/05/10 14:17:12;;;;;;;9.13;3.13;;;;;;;;;;5090749;28;20036;-74
2022/05/10 14:19:41;;;;;;;10.15;3.35;;;;;;;;;;5088414;28;20039;-72
2022/05/10 14:22:12;;;;;;;8.20;3.08;;;;;;;;;;5085378;28;20039;-73
2022/05/10 14:24:39;;;;;;;5.80;2.20;;;;;;;;;;5089212;28;20036;-75
2022/05/10 14:27:09;;;;;;;10.23;2.10;;;;;;;;;;5088375;28;20031;-75
2022/05/10 14:29:39;;;;;;;8.07;2.40;;;;;;;;;;5089577;28;20048;-74
2022/05/10 14:32:08;;;;;;;6.32;1.73;;;;;;;;;;5093757;28;20043;-75
2022/05/10 14:34:44;;;;;;;8.65;1.80;;;;;;;;;;5091554;28;20080;-77
2022/05/10 14:37:11;;;;;;;7.38;1.85;;;;;;;;;;5095618;28;20121;-79
2022/05/10 14:39:37;;;;;;;7.68;1.55;;;;;;;;;;5095575;28;20036;-81
2022/05/10 14:42:08;;;;;;;7.68;1.45;;;;;;;;;;5092196;28;20128;-79
2022/05/10 14:44:42;;;;;;;4.18;1.52;;;;;;;;;;5074870;28;20040;-77
2022/05/10 14:47:38;;;;;;;5.97;1.50;;;;;;;;;;5076825;28;20056;-78
2022/05/10 14:50:05;;;;;;;3.90;1.40;;;;;;;;;;5078862;28;20040;-80
2022/05/10 14:52:34;;;;;;;4.43;1.30;;;;;;;;;;5088262;28;20111;-79
2022/05/10 14:55:01;;;;;;;6.70;1.40;;;;;;;;;;5102693;28;20050;-80
2022/05/10 14:58:03;;;;;;;6.65;1.40;;;;;;;;;;5097956;28;20064;-80
2022/05/10 15:00:29;;;;;;;9.15;1.63;;;;;;;;;;5090561;28;20504;-78
2022/05/10 15:03:08;;;;;;;5.30;1.42;;;;;;;;;;5086475;28;20036;-78
2022/05/10 15:05:34;;;;;;;6.13;1.50;;;;;;;;;;5075129;28;20395;-78
2022/05/10 15:08:02;;;;;;;6.03;1.30;;;;;;;;;;5081130;28;20040;-78
2022/05/10 15:10:28;;;;;;;6.65;1.40;;;;;;;;;;5064938;28;20040;-78